createdAt,value
2022-11-30T00:00:18.188Z,35.25
2022-11-30T00:05:20.958Z,32.78
2022-11-30T00:10:23.607Z,31.70
2022-11-30T00:15:25.302Z,36.05
2022-11-30T00:20:29.704Z,35.00
2022-11-30T00:25:31.381Z,34.75
2022-11-30T00:30:33.076Z,33.40
2022-11-30T00:35:34.767Z,33.25
2022-11-30T00:40:36.428Z,34.03
2022-11-30T00:45:38.089Z,33.42
2022-11-30T00:50:39.789Z,32.25
2022-11-30T00:55:43.569Z,33.60
2022-11-30T01:00:45.515Z,32.40
2022-11-30T01:05:47.333Z,33.70
2022-11-30T01:10:53.392Z,32.72
2022-11-30T01:15:55.156Z,31.77
2022-11-30T01:20:56.961Z,33.22
2022-11-30T01:25:58.660Z,31.15
2022-11-30T01:31:02.691Z,32.00
2022-11-30T01:36:13.785Z,32.13
2022-11-30T01:41:20.050Z,32.83
2022-11-30T01:46:27.520Z,32.97
2022-11-30T01:51:34.190Z,31.13
2022-11-30T01:56:37.852Z,33.00
2022-11-30T02:01:39.552Z,31.77
2022-11-30T02:06:42.185Z,33.50
2022-11-30T02:11:43.937Z,31.92
2022-11-30T02:17:05.536Z,30.90
2022-11-30T02:22:33.620Z,31.73
2022-11-30T02:27:53.645Z,30.73
2022-11-30T02:33:07.283Z,29.30
2022-11-30T02:38:10.428Z,30.00
2022-11-30T02:43:12.139Z,30.20
2022-11-30T02:48:17.281Z,33.03
2022-11-30T02:53:19.972Z,31.85
2022-11-30T02:58:22.365Z,30.25
2022-11-30T03:03:24.074Z,27.38
2022-11-30T03:08:25.823Z,29.73
2022-11-30T03:13:27.496Z,29.10
2022-11-30T03:18:29.152Z,30.52
2022-11-30T03:23:30.860Z,31.13
2022-11-30T03:28:32.651Z,31.23
2022-11-30T03:33:34.332Z,32.03
2022-11-30T03:38:36.639Z,29.45
2022-11-30T03:43:38.355Z,29.70
2022-11-30T03:48:43.235Z,29.85
2022-11-30T03:53:45.085Z,27.98
2022-11-30T03:58:46.796Z,29.83
2022-11-30T04:03:49.282Z,26.95
2022-11-30T04:08:50.967Z,28.00
2022-11-30T04:13:52.636Z,30.00
2022-11-30T04:18:54.342Z,28.02
2022-11-30T04:23:56.006Z,26.80
2022-11-30T04:28:57.676Z,27.05
2022-11-30T04:33:59.469Z,27.00
2022-11-30T04:39:01.148Z,28.17
2022-11-30T04:44:02.839Z,27.85
2022-11-30T04:49:04.664Z,28.67
2022-11-30T04:54:06.450Z,29.77
2022-11-30T04:59:08.124Z,29.30
2022-11-30T05:04:09.846Z,31.13
2022-11-30T05:09:11.529Z,28.00
2022-11-30T05:14:13.226Z,27.85
2022-11-30T05:19:15.549Z,30.50
2022-11-30T05:24:17.261Z,25.33
2022-11-30T05:29:18.939Z,31.67
2022-11-30T05:34:20.662Z,29.48
2022-11-30T05:39:22.329Z,31.33
2022-11-30T05:44:24.007Z,30.05
2022-11-30T05:49:25.684Z,31.83
2022-11-30T05:54:27.443Z,28.53
2022-11-30T05:59:29.111Z,30.67
2022-11-30T06:04:30.874Z,32.00
2022-11-30T06:09:32.550Z,31.58
2022-11-30T06:14:34.225Z,31.55
2022-11-30T06:19:35.890Z,31.03
2022-11-30T06:24:37.599Z,31.63
2022-11-30T06:29:39.279Z,29.77
2022-11-30T06:34:40.941Z,30.45
2022-11-30T06:40:05.291Z,31.43
2022-11-30T06:45:05.794Z,33.03
2022-11-30T06:50:08.369Z,30.87
2022-11-30T06:55:11.039Z,29.85
2022-11-30T07:00:13.470Z,34.10
2022-11-30T07:05:15.189Z,30.35
2022-11-30T07:10:20.118Z,34.47
2022-11-30T07:15:22.130Z,32.17
2022-11-30T07:20:23.793Z,33.10
2022-11-30T07:25:44.113Z,33.65
2022-11-30T07:30:45.780Z,31.45
2022-11-30T07:35:47.460Z,32.85
2022-11-30T07:40:49.154Z,32.38
2022-11-30T07:45:54.032Z,29.40
2022-11-30T07:51:02.321Z,30.13
2022-11-30T07:56:05.794Z,29.15
2022-11-30T08:01:12.916Z,29.58
2022-11-30T08:06:19.899Z,28.10
2022-11-30T08:11:24.354Z,29.30
2022-11-30T08:16:28.845Z,26.40
2022-11-30T08:21:32.442Z,34.33
2022-11-30T08:26:34.475Z,29.35
2022-11-30T08:31:37.772Z,30.42
2022-11-30T08:36:40.716Z,30.30
2022-11-30T08:41:42.422Z,30.67
2022-11-30T08:46:52.383Z,31.70
2022-11-30T08:57:20.361Z,33.17
2022-11-30T09:02:22.074Z,29.45
2022-11-30T09:07:23.777Z,23.65
2022-11-30T09:12:25.460Z,27.58
2022-11-30T09:17:27.150Z,24.17
2022-11-30T09:22:28.919Z,23.27
2022-11-30T09:27:34.211Z,21.77
2022-11-30T09:32:35.883Z,22.00
2022-11-30T09:37:38.888Z,21.67
2022-11-30T09:43:20.789Z,21.13
2022-11-30T09:48:27.261Z,20.30
2022-11-30T09:53:40.493Z,19.70
2022-11-30T09:58:49.447Z,20.02
2022-11-30T10:03:51.300Z,19.02
2022-11-30T10:09:07.942Z,19.42
2022-11-30T10:14:35.500Z,17.85
2022-11-30T10:20:01.730Z,19.30
2022-11-30T10:25:08.626Z,19.33
2022-11-30T10:30:25.370Z,18.00
2022-11-30T10:35:43.374Z,18.30
2022-11-30T10:40:58.893Z,18.02
2022-11-30T10:46:00.694Z,17.88
2022-11-30T10:51:03.679Z,17.80
2022-11-30T10:56:12.241Z,17.83
2022-11-30T11:01:35.957Z,17.80
2022-11-30T11:06:44.133Z,18.15
2022-11-30T11:11:45.980Z,16.17
2022-11-30T11:16:51.964Z,16.58
2022-11-30T11:21:53.951Z,15.02
2022-11-30T11:26:57.143Z,15.43
2022-11-30T11:32:27.231Z,15.48
2022-11-30T11:37:31.127Z,16.17
2022-11-30T11:42:42.482Z,16.27
2022-11-30T11:47:46.300Z,16.33
2022-11-30T11:52:49.890Z,18.25
2022-11-30T11:58:02.387Z,18.35
2022-11-30T12:03:19.211Z,17.45
2022-11-30T12:08:55.142Z,18.13
2022-11-30T12:13:56.869Z,16.23
2022-11-30T12:19:16.144Z,17.80
2022-11-30T12:24:26.691Z,17.42
2022-11-30T12:30:09.982Z,16.88
2022-11-30T12:35:45.598Z,16.67
2022-11-30T12:41:02.423Z,16.73
2022-11-30T12:46:14.963Z,16.85
2022-11-30T12:51:30.159Z,18.25
2022-11-30T12:57:01.467Z,17.52
2022-11-30T13:02:22.222Z,17.65
2022-11-30T13:07:38.359Z,17.05
2022-11-30T13:12:47.115Z,19.15
2022-11-30T13:17:50.135Z,18.90
2022-11-30T13:23:34.056Z,21.23
2022-11-30T13:28:41.882Z,21.27
2022-11-30T13:33:49.038Z,20.00
2022-11-30T13:39:14.000Z,19.60
2022-11-30T13:44:37.265Z,19.83
2022-11-30T13:49:38.995Z,19.38
2022-11-30T13:54:50.431Z,19.30
2022-11-30T13:59:54.572Z,19.67
2022-11-30T14:05:21.503Z,18.60
2022-11-30T14:10:36.090Z,18.02
2022-11-30T14:15:42.075Z,19.20
2022-11-30T14:21:16.412Z,16.45
2022-11-30T14:26:24.552Z,14.88
2022-11-30T14:31:30.517Z,16.63
2022-11-30T14:36:41.610Z,16.25
2022-11-30T14:41:43.291Z,17.50
2022-11-30T14:46:45.104Z,17.23
2022-11-30T14:52:05.595Z,18.58
2022-11-30T14:57:22.684Z,16.27
2022-11-30T15:02:38.656Z,15.77
2022-11-30T15:07:42.993Z,16.23
2022-11-30T15:12:45.943Z,16.20
2022-11-30T15:17:51.074Z,17.13
2022-11-30T15:22:54.902Z,17.05
2022-11-30T15:27:58.564Z,17.35
2022-11-30T15:33:00.311Z,15.60
2022-11-30T15:38:08.414Z,17.35
2022-11-30T15:43:22.006Z,16.60
2022-11-30T15:48:49.214Z,17.55
2022-11-30T15:53:51.911Z,18.63
2022-11-30T15:59:24.187Z,18.30
2022-11-30T16:04:25.898Z,17.95
2022-11-30T16:09:32.619Z,17.85
2022-11-30T16:14:34.313Z,19.25
2022-11-30T16:19:36.009Z,17.48
2022-11-30T16:24:37.682Z,16.77
2022-11-30T16:29:39.344Z,16.40
2022-11-30T16:34:41.576Z,19.08
2022-11-30T16:39:43.406Z,20.90
2022-11-30T16:44:45.084Z,19.95
2022-11-30T16:49:47.154Z,19.20
2022-11-30T16:54:49.024Z,20.17
2022-11-30T16:59:50.679Z,18.30
2022-11-30T17:04:52.388Z,17.58
2022-11-30T17:09:54.062Z,18.15
2022-11-30T17:14:56.003Z,19.70
2022-11-30T17:19:57.822Z,18.27
2022-11-30T17:24:59.624Z,17.95
2022-11-30T17:30:01.400Z,20.60
2022-11-30T17:35:03.515Z,17.40
2022-11-30T17:40:07.064Z,17.83
2022-11-30T17:45:09.348Z,18.65
2022-11-30T17:50:11.437Z,19.00
2022-11-30T17:55:13.097Z,17.38
2022-11-30T18:00:15.493Z,19.20
2022-11-30T18:05:17.226Z,19.15
2022-11-30T18:10:19.102Z,20.27
2022-11-30T18:15:20.755Z,18.05
2022-11-30T18:20:22.840Z,20.15
2022-11-30T18:25:24.718Z,22.67
2022-11-30T18:30:26.663Z,20.50
2022-11-30T18:35:28.766Z,20.85
2022-11-30T18:40:30.452Z,19.48
2022-11-30T18:45:35.816Z,18.45
2022-11-30T18:50:37.580Z,19.88
2022-11-30T18:55:39.239Z,19.33
2022-11-30T19:00:41.158Z,20.52
2022-11-30T19:05:42.819Z,22.15
2022-11-30T19:10:44.507Z,29.73
2022-11-30T19:15:46.187Z,25.17
2022-11-30T19:20:47.857Z,23.23
2022-11-30T19:25:50.197Z,25.05
2022-11-30T19:30:51.911Z,24.73
2022-11-30T19:35:53.631Z,23.77
2022-11-30T19:40:55.425Z,23.92
2022-11-30T19:46:02.999Z,27.45
2022-11-30T19:51:13.405Z,27.98
2022-11-30T19:56:18.107Z,29.90
2022-11-30T20:01:25.399Z,33.15
2022-11-30T20:06:33.923Z,34.15
2022-11-30T20:11:35.797Z,35.20
2022-11-30T20:16:37.501Z,38.70
2022-11-30T20:21:39.235Z,37.53
2022-11-30T20:26:43.358Z,37.53
2022-11-30T20:31:47.164Z,38.58
2022-11-30T20:36:48.857Z,37.30
2022-11-30T20:41:50.519Z,37.13
2022-11-30T20:46:52.189Z,39.58
2022-11-30T20:51:54.037Z,38.60
2022-11-30T20:56:57.329Z,37.08
2022-11-30T21:01:59.037Z,34.20
2022-11-30T21:07:00.888Z,36.40
2022-11-30T21:12:02.593Z,33.53
2022-11-30T21:17:04.776Z,35.22
2022-11-30T21:22:06.505Z,35.92
2022-11-30T21:27:08.302Z,32.92
2022-11-30T21:32:10.085Z,34.28
2022-11-30T21:37:11.743Z,33.35
2022-11-30T21:42:13.395Z,31.60
2022-11-30T21:47:15.266Z,35.85
2022-11-30T21:52:16.995Z,33.95
2022-11-30T21:57:18.886Z,34.13
2022-11-30T22:02:20.604Z,35.67
2022-11-30T22:07:31.655Z,32.53
2022-11-30T22:12:33.402Z,32.42
2022-11-30T22:17:35.073Z,33.25
2022-11-30T22:22:36.753Z,33.35
2022-11-30T22:27:38.559Z,34.05
2022-11-30T22:32:43.477Z,33.20
2022-11-30T22:37:45.391Z,34.00
2022-11-30T22:42:47.064Z,35.47
2022-11-30T22:47:48.755Z,35.58
2022-11-30T22:53:05.164Z,36.67
2022-11-30T22:58:06.848Z,35.65
2022-11-30T23:03:08.609Z,34.67
2022-11-30T23:08:10.358Z,36.35
2022-11-30T23:13:12.138Z,35.25
2022-11-30T23:18:13.813Z,37.03
2022-11-30T23:23:15.552Z,36.72
2022-11-30T23:28:17.375Z,34.28
2022-11-30T23:33:19.078Z,33.85
2022-11-30T23:38:20.754Z,32.70
2022-11-30T23:43:22.461Z,31.90
2022-11-30T23:48:24.464Z,29.38
2022-11-30T23:53:26.693Z,29.92
2022-11-30T23:58:29.840Z,31.88
